CW0009 Weather Reports


Display with metric or nautical units.
time (UTC)temp
F
wind
direction
speed
MPH
gust
MPH
rain 1hr
in
rain 24hr
in
rain mn
in
humidity
%
barometer
mb
20180919201036 89 170 1.0 3.0 0.00 0.00 0.00 11 1017.0
20180919200035 89 165 2.0 3.0 0.00 0.00 0.00 11 1017.0
20180919195036 89 130 3.0 6.0 0.00 0.00 0.00 11 1017.0
20180919194014 89 150 3.0 5.0 0.00 0.00 0.00 11 1017.0
20180919193016 89 150 1.0 5.0 0.00 0.00 0.00 11 1017.0
20180919192036 69 175 2.0 2.0 0.00 0.00 0.00 74 1017.0
20180919191014 89 160 3.0 5.0 0.00 0.00 0.00 11 1017.0
20180919190015 69 155 3.0 3.0 0.00 0.00 0.00 73 1017.0
20180919185015 70 140 5.0 5.0 0.00 0.00 0.00 73 1017.0
20180919184015 70 140 5.0 5.0 0.00 0.00 0.00 72 1017.0
20180919183015 88 150 5.0 6.0 0.00 0.00 0.00 11 1017.0
20180919182015 89 180 5.0 6.0 0.00 0.00 0.00 11 1017.0
20180919181015 89 170 5.0 7.0 0.00 0.00 0.00 11 1017.0
20180919180013 71 180 6.0 7.0 0.00 0.00 0.00 72 1017.0
20180919175015 71 170 6.0 9.0 0.00 0.00 0.00 72 1017.0
20180919174016 71 165 6.0 7.0 0.00 0.00 0.00 72 1017.0
20180919173015 71 180 7.0 8.0 0.00 0.00 0.00 72 1016.0
20180919172014 89 165 8.0 10.0 0.00 0.00 0.00 11 1016.0
20180919171015 89 190 7.0 10.0 0.00 0.00 0.00 11 1016.0
20180919170014 88 185 7.0 10.0 0.00 0.00 0.00 11 1016.0
20180919165036 88 180 9.0 8.0 0.00 0.00 0.00 11 1016.0
20180919164014 87 220 12.0 14.0 0.00 0.00 0.00 11 1016.0
20180919163016 86 180 12.0 12.0 0.00 0.00 0.00 11 1016.0
20180919162015 73 220 12.0 12.0 0.00 0.00 0.00 70 1016.0
20180919161020 73 205 12.0 14.0 0.00 0.00 0.00 70 1016.0
20180919160013 87 200 10.0 12.0 0.00 0.00 0.00 11 1016.0
20180919155015 86 185 12.0 14.0 0.00 0.00 0.00 11 1016.0
20180919154015 73 180 13.0 17.0 0.00 0.00 0.00 69 1016.0
20180919153015 86 190 13.0 13.0 0.00 0.00 0.00 11 1016.0
20180919152015 73 200 13.0 15.0 0.00 0.00 0.00 69 1016.0
20180919151016 73 205 12.0 14.0 0.00 0.00 0.00 69 1016.0
20180919150013 73 190 14.0 15.0 0.00 0.00 0.00 69 1016.0
20180919145015 73 215 14.0 16.0 0.00 0.00 0.00 69 1016.0
20180919144014 73 190 13.0 16.0 0.00 0.00 0.00 69 1016.0
20180919143016 73 215 14.0 16.0 0.00 0.00 0.00 69 1016.0
20180919142015 87 185 13.0 15.0 0.00 0.00 0.00 11 1016.0
20180919141036 87 195 13.0 16.0 0.00 0.00 0.00 11 1016.0
20180919140014 86 205 13.0 13.0 0.00 0.00 0.00 11 1016.0
20180919135015 87 215 14.0 13.0 0.00 0.00 0.00 11 1016.0
20180919134014 87 190 14.0 17.0 0.00 0.00 0.00 11 1016.0
20180919133019 74 190 14.0 13.0 0.00 0.00 0.00 69 1016.0
20180919132036 74 190 14.0 15.0 0.00 0.00 0.00 69 1016.0
20180919130011 74 180 14.0 16.0 0.00 0.00 0.00 68 1016.0
20180919125034 75 205 13.0 14.0 0.00 0.00 0.00 68 1016.0
20180919124012 75 175 13.0 14.0 0.00 0.00 0.00 68 1016.0
20180919122013 80 195 13.0 16.0 0.00 0.00 0.00 61 1016.0
20180919121012 80 185 12.0 14.0 0.00 0.00 0.00 61 1016.0
20180919120012 86 185 10.0 14.0 0.00 0.00 0.00 11 1016.0
20180919115033 76 190 12.0 10.0 0.00 0.00 0.00 70 1016.0
20180919114034 76 180 12.0 14.0 0.00 0.00 0.00 71 1016.0
20180919113014 76 215 13.0 12.0 0.00 0.00 0.00 71 1016.0
20180919112013 76 175 13.0 14.0 0.00 0.00 0.00 72 1016.0
20180919111034 76 210 13.0 15.0 0.00 0.00 0.00 73 1016.0
20180919110010 75 205 14.0 16.0 0.00 0.00 0.00 74 1016.0
20180919105013 84 190 14.0 16.0 0.00 0.00 0.00 11 1016.0
20180919104012 75 190 12.0 15.0 0.00 0.00 0.00 76 1016.0
20180919103013 74 170 12.0 14.0 0.00 0.00 0.00 77 1016.0
20180919102015 73 195 12.0 16.0 0.00 0.00 0.00 78 1016.0
20180919101034 84 185 10.0 12.0 0.00 0.00 0.00 11 1017.0
20180919100031 71 230 10.0 13.0 0.00 0.00 0.00 79 1017.0
20180919095013 84 210 10.0 10.0 0.00 0.00 0.00 11 1016.0
20180919094013 84 190 12.0 13.0 0.00 0.00 0.00 11 1016.0
20180919093012 84 200 12.0 13.0 0.00 0.00 0.00 11 1016.0
20180919092013 84 205 10.0 15.0 0.00 0.00 0.00 11 1016.0
20180919091012 84 225 9.0 14.0 0.00 0.00 0.00 11 1016.0
20180919090031 84 175 9.0 12.0 0.00 0.00 0.00 11 1016.0
20180919085033 84 185 10.0 14.0 0.00 0.00 0.00 11 1016.0
20180919084014 84 185 9.0 13.0 0.00 0.00 0.00 11 1016.0
20180919083013 84 175 9.0 10.0 0.00 0.00 0.00 11 1016.0
20180919082013 84 200 9.0 12.0 0.00 0.00 0.00 11 1016.0
20180919081012 84 185 9.0 12.0 0.00 0.00 0.00 11 1016.0
20180919080010 84 175 9.0 13.0 0.00 0.00 0.00 11 1016.0
20180919075012 65 170 8.0 13.0 0.00 0.00 0.00 81 1016.0
20180919073012 63 180 7.0 9.0 0.00 0.00 0.00 82 1016.0
20180919072011 63 160 6.0 8.0 0.00 0.00 0.00 82 1016.0
20180919071013 62 180 7.0 8.0 0.00 0.00 0.00 81 1016.0
20180919070010 62 170 7.0 9.0 0.00 0.00 0.00 81 1015.0
20180919065012 61 165 7.0 9.0 0.00 0.00 0.00 82 1015.0
20180919064035 61 135 4.0 6.0 0.00 0.00 0.00 82 1015.0
20180919063034 60 160 1.0 6.0 0.00 0.00 0.00 82 1015.0
20180919062033 59 150 0.0 0.0 0.00 0.00 0.00 82 1015.0
20180919061033 59 160 0.0 0.0 0.00 0.00 0.00 82 1015.0
20180919060010 58 155 0.0 0.0 0.00 0.00 0.00 82 1015.0
20180919055013 58 135 0.0 0.0 0.00 0.00 0.00 82 1015.0
20180919053014 58 130 0.0 0.0 0.00 0.00 0.00 82 1015.0
20180919052012 58 130 0.0 0.0 0.00 0.00 0.00 82 1015.0
20180919051014 83 130 0.0 0.0 0.00 0.00 0.00 11 1015.0
20180919050011 83 130 0.0 0.0 0.00 0.00 0.00 11 1015.0
20180919045013 84 130 0.0 0.0 0.00 0.00 0.00 11 1015.0
20180919043013 58 130 0.0 0.0 0.00 0.00 0.00 82 1015.0
20180919042012 84 135 0.0 0.0 0.00 0.00 0.00 11 1015.0
20180919041013 58 135 0.0 0.0 0.00 0.00 0.00 82 1015.0
20180919040010 58 135 0.0 0.0 0.00 0.00 0.00 82 1015.0
20180919035012 58 135 0.0 0.0 0.00 0.00 0.00 82 1015.0
20180919034012 58 135 0.0 0.0 0.00 0.00 0.00 82 1015.0
20180919033035 58 135 0.0 0.0 0.00 0.00 0.00 82 1015.0
20180919032013 58 135 0.0 0.0 0.00 0.00 0.00 82 1015.0
20180919031012 58 210 0.0 0.0 0.00 0.00 0.00 82 1016.0
20180919030012 58 210 0.0 0.0 0.00 0.00 0.00 82 1016.0
20180919025012 58 210 0.0 0.0 0.00 0.00 0.00 82 1016.0
20180919024015 58 210 0.0 0.0 0.00 0.00 0.00 82 1015.0
20180919023014 84 210 0.0 0.0 0.00 0.00 0.00 11 1015.0
20180919022012 84 210 0.0 0.0 0.00 0.00 0.00 11 1016.0
20180919021013 58 210 0.0 0.0 0.00 0.00 0.00 82 1016.0
20180919020010 84 210 0.0 0.0 0.00 0.00 0.00 11 1015.0
20180919015012 84 210 0.0 0.0 0.00 0.00 0.00 11 1015.0
20180919014013 84 210 0.0 0.0 0.00 0.00 0.00 11 1015.0
20180919011012 84 210 0.0 0.0 0.00 0.00 0.00 11 1016.0
20180919010011 84 210 0.0 0.0 0.00 0.00 0.00 11 1016.0
20180919005013 84 210 0.0 0.0 0.00 0.00 0.00 11 1016.0
20180919004033 84 210 0.0 0.0 0.00 0.00 0.00 11 1016.0
20180919002012 85 210 0.0 0.0 0.00 0.00 0.00 11 1016.0
20180919001014 90 210 0.0 0.0 0.00 0.00 0.00 11 1016.0
20180919000011 90 210 0.0 0.0 0.00 0.00 0.00 11 1016.0
20180918235012 90 210 0.0 0.0 0.00 0.00 0.00 11 1016.0
20180918234011 90 210 0.0 0.0 0.00 0.00 0.00 11 1016.0
20180918233034 90 210 0.0 0.0 0.00 0.00 0.00 11 1016.0
20180918232012 61 210 0.0 0.0 0.00 0.00 0.00 80 1016.0
20180918231033 61 210 0.0 0.0 0.00 0.00 0.00 80 1016.0
20180918230011 62 210 0.0 0.0 0.00 0.00 0.00 81 1016.0
20180918225012 62 210 0.0 0.0 0.00 0.00 0.00 80 1016.0
20180918224012 90 210 0.0 0.0 0.00 0.00 0.00 11 1016.0
20180918223013 90 210 0.0 0.0 0.00 0.00 0.00 11 1016.0
20180918222034 90 210 0.0 0.0 0.00 0.00 0.00 11 1016.0
20180918221012 90 210 0.0 0.0 0.00 0.00 0.00 11 1016.0
20180918220033 90 210 0.0 0.0 0.00 0.00 0.00 11 1016.0
20180918215033 90 210 0.0 0.0 0.00 0.00 0.00 11 1016.0
20180918214012 90 210 0.0 0.0 0.00 0.00 0.00 11 1016.0
20180918212012 89 210 0.0 0.0 0.00 0.00 0.00 11 1016.0
20180918211033 65 210 0.0 0.0 0.00 0.00 0.00 78 1015.0
20180918210011 66 210 0.0 0.0 0.00 0.00 0.00 78 1015.0
20180918205033 66 210 0.0 0.0 0.00 0.00 0.00 78 1015.0
20180918204012 66 240 0.0 0.0 0.00 0.00 0.00 77 1015.0
20180918203034 89 295 0.0 0.0 0.00 0.00 0.00 11 1015.0
20180918202012 90 270 2.0 0.0 0.00 0.00 0.00 11 1015.0